createdAt,value
2023-02-01T00:01:22.032Z,83.47
2023-02-01T00:03:53.439Z,84.25
2023-02-01T00:06:25.344Z,84.71
2023-02-01T00:08:58.777Z,84.87
2023-02-01T00:11:33.154Z,84.92
2023-02-01T00:14:05.244Z,85.50
2023-02-01T00:16:35.968Z,84.60
2023-02-01T00:19:12.769Z,85.22
2023-02-01T00:21:44.886Z,84.64
2023-02-01T00:24:15.730Z,83.92
2023-02-01T00:26:49.588Z,83.78
2023-02-01T00:29:24.527Z,83.23
2023-02-01T00:31:54.881Z,82.36
2023-02-01T00:34:26.062Z,82.04
2023-02-01T00:36:56.588Z,82.00
2023-02-01T00:39:27.173Z,82.58
2023-02-01T00:41:58.268Z,83.19
2023-02-01T00:44:28.923Z,83.22
2023-02-01T00:46:59.401Z,82.82
2023-02-01T00:49:31.351Z,82.47
2023-02-01T00:52:03.078Z,82.78
2023-02-01T00:54:36.756Z,82.71
2023-02-01T00:57:07.937Z,82.90
2023-02-01T00:59:39.257Z,82.99
2023-02-01T01:02:11.386Z,83.01
2023-02-01T01:04:42.150Z,83.38
2023-02-01T01:07:15.578Z,83.86
2023-02-01T01:09:48.241Z,83.89
2023-02-01T01:12:20.579Z,83.80
2023-02-01T01:14:52.907Z,83.59
2023-02-01T01:17:23.290Z,83.76
2023-02-01T01:19:54.076Z,83.48
2023-02-01T01:22:24.678Z,83.97
2023-02-01T01:24:56.349Z,83.87
2023-02-01T01:27:26.789Z,83.84
2023-02-01T01:29:57.495Z,83.68
2023-02-01T01:32:29.890Z,83.46
2023-02-01T01:35:00.313Z,83.24
2023-02-01T01:37:31.767Z,83.89
2023-02-01T01:40:03.381Z,83.10
2023-02-01T01:42:43.095Z,82.90
2023-02-01T01:45:21.684Z,82.67
2023-02-01T01:47:58.282Z,82.70
2023-02-01T01:50:39.349Z,82.58
2023-02-01T01:53:13.221Z,82.25
2023-02-01T01:55:48.345Z,82.09
2023-02-01T01:58:22.254Z,82.30
2023-02-01T02:00:54.628Z,81.82
2023-02-01T02:03:35.370Z,81.47
2023-02-01T02:06:09.202Z,81.54
2023-02-01T02:08:39.679Z,81.36
2023-02-01T02:11:13.699Z,81.41
2023-02-01T02:13:48.379Z,81.42
2023-02-01T02:16:33.005Z,81.29
2023-02-01T02:19:12.713Z,81.19
2023-02-01T02:21:58.126Z,80.92
2023-02-01T02:24:34.473Z,81.43
2023-02-01T02:27:26.181Z,81.27
2023-02-01T02:30:16.431Z,81.13
2023-02-01T02:32:55.908Z,81.45
2023-02-01T02:35:50.671Z,81.01
2023-02-01T02:38:38.579Z,81.26
2023-02-01T02:41:53.088Z,81.03
2023-02-01T02:45:07.296Z,81.03
2023-02-01T02:47:56.040Z,80.71
2023-02-01T02:50:57.029Z,80.98
2023-02-01T02:53:54.075Z,80.81
2023-02-01T02:56:44.796Z,80.73
2023-02-01T02:59:36.290Z,80.87
2023-02-01T03:02:25.949Z,80.66
2023-02-01T03:04:58.815Z,80.75
2023-02-01T03:07:56.439Z,80.84
2023-02-01T03:10:35.167Z,80.57
2023-02-01T03:13:11.791Z,80.85
2023-02-01T03:16:01.698Z,80.68
2023-02-01T03:18:50.118Z,80.90
2023-02-01T03:21:24.723Z,80.67
2023-02-01T03:23:57.598Z,80.78
2023-02-01T03:26:30.954Z,80.52
2023-02-01T03:29:05.596Z,80.66
2023-02-01T03:31:36.302Z,80.70
2023-02-01T03:34:07.175Z,80.64
2023-02-01T03:36:52.681Z,80.76
2023-02-01T03:39:32.260Z,80.89
2023-02-01T03:42:05.814Z,80.76
2023-02-01T03:44:57.646Z,80.66
2023-02-01T03:47:31.715Z,80.78
2023-02-01T03:50:05.252Z,80.57
2023-02-01T03:52:48.108Z,81.12
2023-02-01T03:55:21.960Z,80.86
2023-02-01T03:58:04.593Z,80.72
2023-02-01T04:00:37.564Z,80.64
2023-02-01T04:03:10.228Z,80.42
2023-02-01T04:05:40.690Z,80.39
2023-02-01T04:08:11.728Z,80.10
2023-02-01T04:10:42.253Z,79.73
2023-02-01T04:13:12.704Z,79.71
2023-02-01T04:15:43.278Z,79.15
2023-02-01T04:18:14.723Z,79.36
2023-02-01T04:20:47.354Z,79.64
2023-02-01T04:23:17.867Z,79.62
2023-02-01T04:25:48.470Z,79.63
2023-02-01T04:28:23.267Z,79.82
2023-02-01T04:30:54.605Z,79.47
2023-02-01T04:33:25.241Z,79.17
2023-02-01T04:35:57.269Z,79.09
2023-02-01T04:38:30.347Z,79.20
2023-02-01T04:41:01.603Z,78.63
2023-02-01T04:43:31.992Z,78.93
2023-02-01T04:46:03.258Z,78.65
2023-02-01T04:48:33.641Z,78.41
2023-02-01T04:51:05.873Z,78.24
2023-02-01T04:53:38.303Z,78.28
2023-02-01T04:56:09.088Z,78.44
2023-02-01T04:58:39.596Z,77.97
2023-02-01T05:01:10.153Z,77.84
2023-02-01T05:03:41.178Z,77.93
2023-02-01T05:06:13.746Z,77.93
2023-02-01T05:08:44.235Z,77.92
2023-02-01T05:11:32.815Z,78.28
2023-02-01T05:14:03.337Z,77.83
2023-02-01T05:16:35.339Z,77.68
2023-02-01T05:19:05.890Z,77.65
2023-02-01T05:21:37.065Z,77.64
2023-02-01T05:24:13.982Z,77.62
2023-02-01T05:26:46.262Z,77.75
2023-02-01T05:29:18.907Z,77.33
2023-02-01T05:31:50.779Z,77.12
2023-02-01T05:34:24.124Z,77.47
2023-02-01T05:36:56.771Z,77.54
2023-02-01T05:39:27.266Z,77.69
2023-02-01T05:41:57.846Z,77.20
2023-02-01T05:44:28.840Z,77.21
2023-02-01T05:46:59.491Z,77.40
2023-02-01T05:49:29.993Z,77.10
2023-02-01T05:52:01.081Z,77.55
2023-02-01T05:54:32.761Z,77.58
2023-02-01T05:57:03.530Z,77.35
2023-02-01T05:59:33.985Z,77.21
2023-02-01T06:02:04.430Z,77.23
2023-02-01T06:04:35.082Z,77.00
2023-02-01T06:07:05.626Z,77.41
2023-02-01T06:09:38.442Z,77.61
2023-02-01T06:12:09.252Z,78.29
2023-02-01T06:14:40.599Z,78.53
2023-02-01T06:17:11.177Z,79.20
2023-02-01T06:19:45.867Z,79.22
2023-02-01T06:22:17.854Z,79.85
2023-02-01T06:24:48.666Z,79.94
2023-02-01T06:27:19.252Z,80.25
2023-02-01T06:29:49.664Z,80.51
2023-02-01T06:32:20.341Z,80.67
2023-02-01T06:34:53.900Z,81.61
2023-02-01T06:37:28.257Z,81.58
2023-02-01T06:39:58.743Z,81.79
2023-02-01T06:42:29.409Z,80.98
2023-02-01T06:45:00.211Z,80.60
2023-02-01T06:47:31.919Z,80.82
2023-02-01T06:50:02.571Z,80.62
2023-02-01T06:52:33.394Z,80.64
2023-02-01T06:55:07.032Z,79.51
2023-02-01T06:57:37.612Z,79.51
2023-02-01T07:00:10.683Z,79.07
2023-02-01T07:02:42.293Z,79.23
2023-02-01T07:05:14.191Z,78.40
2023-02-01T07:07:45.888Z,78.85
2023-02-01T07:10:16.500Z,78.64
2023-02-01T07:12:46.989Z,78.23
2023-02-01T07:15:19.796Z,78.50
2023-02-01T07:17:50.595Z,78.76
2023-02-01T07:20:21.883Z,79.43
2023-02-01T07:22:59.136Z,79.55
2023-02-01T07:25:31.731Z,79.79
2023-02-01T07:28:03.846Z,80.41
2023-02-01T07:30:34.437Z,81.01
2023-02-01T07:33:06.210Z,80.79
2023-02-01T07:35:38.207Z,80.05
2023-02-01T07:38:08.651Z,80.20
2023-02-01T07:40:39.463Z,80.36
2023-02-01T07:43:10.566Z,80.90
2023-02-01T07:45:41.336Z,81.31
2023-02-01T07:48:12.518Z,82.27
2023-02-01T07:50:43.072Z,82.95
2023-02-01T07:53:14.678Z,84.07
2023-02-01T07:55:45.122Z,84.74
2023-02-01T07:58:16.993Z,85.49
2023-02-01T08:01:05.602Z,85.84
2023-02-01T08:03:37.760Z,86.02
2023-02-01T08:06:08.614Z,86.12
2023-02-01T08:08:39.417Z,86.35
2023-02-01T08:11:11.184Z,86.61
2023-02-01T08:13:42.097Z,87.04
2023-02-01T08:16:15.193Z,87.34
2023-02-01T08:18:45.721Z,87.51
2023-02-01T08:21:19.445Z,87.36
2023-02-01T08:23:50.298Z,87.36
2023-02-01T08:26:26.780Z,87.80
2023-02-01T08:29:00.560Z,87.86
2023-02-01T08:31:32.623Z,87.97
2023-02-01T08:34:10.445Z,88.13
2023-02-01T08:36:43.126Z,88.52
2023-02-01T08:39:14.125Z,88.67
2023-02-01T08:41:46.255Z,88.99
2023-02-01T08:44:16.879Z,89.10
2023-02-01T08:46:49.093Z,89.00
2023-02-01T08:49:20.153Z,88.83
2023-02-01T08:51:50.669Z,88.82
2023-02-01T08:54:22.084Z,88.90
2023-02-01T08:56:54.262Z,89.16
2023-02-01T08:59:27.431Z,89.14
2023-02-01T09:01:59.995Z,88.88
2023-02-01T09:04:31.082Z,88.97
2023-02-01T09:07:01.675Z,89.17
2023-02-01T09:09:32.152Z,88.82
2023-02-01T09:12:02.924Z,88.42
2023-02-01T09:14:33.731Z,88.57
2023-02-01T09:17:06.233Z,88.28
2023-02-01T09:19:36.886Z,88.02
2023-02-01T09:22:07.726Z,87.77
2023-02-01T09:24:42.390Z,87.01
2023-02-01T09:27:13.715Z,87.20
2023-02-01T09:29:44.453Z,87.60
2023-02-01T09:32:14.929Z,87.33
2023-02-01T09:34:46.767Z,87.31
2023-02-01T09:37:17.997Z,86.76
2023-02-01T09:39:48.688Z,86.52
2023-02-01T09:42:22.147Z,86.67
2023-02-01T09:45:02.354Z,86.65
2023-02-01T09:47:34.864Z,86.90
2023-02-01T09:50:22.672Z,86.67
2023-02-01T09:53:13.786Z,86.29
2023-02-01T09:55:47.700Z,86.12
2023-02-01T09:58:29.668Z,85.91
2023-02-01T10:01:04.149Z,85.91
2023-02-01T10:03:37.138Z,85.91
2023-02-01T10:06:23.702Z,86.27
2023-02-01T10:09:11.337Z,87.25
2023-02-01T10:11:50.718Z,87.27
2023-02-01T10:14:27.400Z,87.76
2023-02-01T10:17:12.750Z,88.07
2023-02-01T10:20:13.919Z,87.72
2023-02-01T10:23:19.501Z,87.82
2023-02-01T10:25:39.297Z,87.82
2023-02-01T10:28:12.936Z,87.50
2023-02-01T10:30:46.597Z,87.69
2023-02-01T10:33:36.711Z,87.10
2023-02-01T10:36:22.191Z,86.86
2023-02-01T10:38:54.984Z,86.57
2023-02-01T10:41:31.649Z,86.43
2023-02-01T10:44:09.658Z,86.51
2023-02-01T10:46:43.486Z,86.67
2023-02-01T10:49:29.763Z,87.46
2023-02-01T10:52:15.822Z,87.25
2023-02-01T10:54:47.950Z,87.03
2023-02-01T10:57:26.037Z,87.50
2023-02-01T10:59:59.512Z,87.68
2023-02-01T11:02:40.051Z,88.02
2023-02-01T11:05:13.320Z,88.05
2023-02-01T11:07:52.071Z,87.72
2023-02-01T11:10:38.176Z,87.48
2023-02-01T11:13:18.668Z,86.54
2023-02-01T11:15:52.151Z,86.92
2023-02-01T11:18:28.826Z,86.87
2023-02-01T11:21:03.586Z,87.09
2023-02-01T11:23:37.426Z,86.92
2023-02-01T11:26:17.878Z,86.48
2023-02-01T11:28:51.423Z,85.97
2023-02-01T11:31:24.322Z,85.91
2023-02-01T11:34:00.361Z,85.05
2023-02-01T11:36:35.639Z,84.61
2023-02-01T11:39:23.707Z,83.72
2023-02-01T11:42:18.320Z,84.21
2023-02-01T11:44:50.028Z,84.48
2023-02-01T11:47:39.083Z,83.62
2023-02-01T11:50:23.853Z,83.48
2023-02-01T11:53:03.534Z,82.97
2023-02-01T11:55:56.721Z,82.12
2023-02-01T11:58:45.266Z,80.91
2023-02-01T12:01:33.780Z,81.25
2023-02-01T12:04:10.475Z,80.81
2023-02-01T12:07:08.446Z,80.02
2023-02-01T12:09:45.043Z,80.57
2023-02-01T12:12:55.047Z,79.38
2023-02-01T12:15:49.465Z,79.47
2023-02-01T12:18:34.710Z,79.33
2023-02-01T12:21:11.388Z,79.17
2023-02-01T12:24:10.904Z,78.97
2023-02-01T12:26:53.841Z,79.36
2023-02-01T12:29:41.525Z,79.09
2023-02-01T12:32:22.276Z,79.49
2023-02-01T12:35:04.321Z,79.37
2023-02-01T12:37:47.404Z,84.06
2023-02-01T12:40:55.757Z,77.46
2023-02-01T12:43:43.103Z,75.69
2023-02-01T12:46:22.966Z,77.15
2023-02-01T12:49:04.972Z,77.33
2023-02-01T12:51:40.274Z,77.00
2023-02-01T12:54:29.122Z,76.89
2023-02-01T12:57:06.519Z,76.97
2023-02-01T12:59:56.267Z,76.48
2023-02-01T13:02:40.297Z,76.28
2023-02-01T13:05:21.952Z,75.83
2023-02-01T13:07:55.453Z,76.08
2023-02-01T13:10:42.430Z,75.26
2023-02-01T13:13:24.772Z,75.74
2023-02-01T13:16:10.198Z,75.89
2023-02-01T13:18:45.729Z,75.79
2023-02-01T13:21:22.559Z,76.35
2023-02-01T13:23:55.130Z,76.69
2023-02-01T13:26:25.731Z,76.32
2023-02-01T13:29:07.899Z,76.16
2023-02-01T13:31:46.410Z,76.17
2023-02-01T13:34:43.831Z,76.03
2023-02-01T13:37:36.160Z,76.19
2023-02-01T13:40:15.582Z,76.19
2023-02-01T13:42:58.847Z,76.55
2023-02-01T13:45:35.862Z,75.68
2023-02-01T13:48:10.099Z,75.58
2023-02-01T13:50:42.707Z,76.01
2023-02-01T13:53:17.599Z,76.52
2023-02-01T13:55:52.538Z,76.34
2023-02-01T13:58:28.219Z,75.49
2023-02-01T14:01:24.539Z,76.00
2023-02-01T14:03:58.115Z,76.53
2023-02-01T14:06:39.160Z,76.43
2023-02-01T14:09:18.672Z,75.78
2023-02-01T14:11:54.789Z,76.91
2023-02-01T14:14:29.082Z,79.75
2023-02-01T14:17:02.759Z,81.50
2023-02-01T14:19:35.744Z,81.82
2023-02-01T14:22:36.076Z,82.22
2023-02-01T14:25:08.603Z,82.95
2023-02-01T14:27:40.475Z,82.73
2023-02-01T14:30:14.144Z,82.52
2023-02-01T14:32:49.352Z,82.16
2023-02-01T14:35:28.083Z,82.50
2023-02-01T14:38:05.038Z,82.54
2023-02-01T14:40:36.947Z,81.98
2023-02-01T14:43:09.684Z,80.88
2023-02-01T14:45:46.000Z,81.37
2023-02-01T14:48:19.589Z,81.03
2023-02-01T14:50:51.481Z,80.60
2023-02-01T14:53:30.151Z,80.85
2023-02-01T14:56:10.208Z,80.81
2023-02-01T14:59:02.631Z,80.27
2023-02-01T15:01:36.177Z,79.92
2023-02-01T15:04:23.016Z,80.40
2023-02-01T15:06:58.274Z,79.93
2023-02-01T15:09:41.320Z,79.71
2023-02-01T15:12:28.588Z,80.30
2023-02-01T15:15:25.070Z,82.15
2023-02-01T15:18:00.992Z,82.86
2023-02-01T15:20:34.530Z,83.19
2023-02-01T15:23:11.461Z,83.71
2023-02-01T15:25:46.836Z,83.87
2023-02-01T15:28:18.614Z,84.26
2023-02-01T15:30:58.162Z,84.77
2023-02-01T15:33:31.647Z,84.94
2023-02-01T15:36:13.182Z,84.95
2023-02-01T15:38:45.559Z,85.63
2023-02-01T15:41:25.405Z,86.56
2023-02-01T15:43:59.069Z,86.34
2023-02-01T15:46:35.449Z,86.91
2023-02-01T15:49:09.646Z,87.16
2023-02-01T15:51:43.384Z,87.70
2023-02-01T15:54:22.865Z,87.92
2023-02-01T15:56:57.730Z,87.95
2023-02-01T15:59:34.949Z,88.59
2023-02-01T16:02:05.452Z,88.79
2023-02-01T16:04:39.289Z,89.16
2023-02-01T16:07:12.965Z,89.29
2023-02-01T16:09:51.907Z,89.31
2023-02-01T16:12:28.196Z,89.22
2023-02-01T16:14:59.092Z,89.18
2023-02-01T16:17:30.105Z,89.29
2023-02-01T16:20:00.900Z,89.26
2023-02-01T16:22:33.509Z,89.52
2023-02-01T16:25:04.144Z,89.69
2023-02-01T16:27:37.493Z,89.51
2023-02-01T16:30:10.969Z,89.44
2023-02-01T16:32:42.211Z,89.43
2023-02-01T16:35:20.085Z,89.58
2023-02-01T16:37:52.998Z,89.31
2023-02-01T16:40:25.476Z,89.33
2023-02-01T16:42:56.513Z,89.39
2023-02-01T16:45:27.504Z,89.45
2023-02-01T16:48:01.282Z,89.30
2023-02-01T16:50:33.868Z,89.29
2023-02-01T16:53:09.250Z,89.32
2023-02-01T16:55:41.239Z,89.26
2023-02-01T16:58:13.561Z,89.23
2023-02-01T17:00:48.694Z,89.26
2023-02-01T17:03:20.648Z,88.97
2023-02-01T17:05:54.732Z,88.75
2023-02-01T17:08:30.008Z,88.73
2023-02-01T17:11:01.346Z,88.53
2023-02-01T17:13:32.079Z,88.56
2023-02-01T17:16:08.657Z,88.48
2023-02-01T17:18:40.692Z,88.41
2023-02-01T17:21:12.530Z,88.41
2023-02-01T17:23:43.247Z,88.39
2023-02-01T17:26:13.814Z,88.57
2023-02-01T17:28:44.938Z,88.02
2023-02-01T17:31:17.141Z,87.94
2023-02-01T17:33:47.816Z,88.09
2023-02-01T17:36:23.161Z,88.01
2023-02-01T17:39:05.379Z,87.80
2023-02-01T17:41:27.833Z,88.02
2023-02-01T17:44:05.941Z,87.76
2023-02-01T17:46:45.002Z,87.83
2023-02-01T17:49:15.493Z,87.58
2023-02-01T17:51:50.629Z,87.39
2023-02-01T17:54:20.644Z,87.56
2023-02-01T17:56:51.717Z,87.69
2023-02-01T17:59:22.370Z,87.85
2023-02-01T18:01:56.051Z,87.74
2023-02-01T18:04:27.896Z,87.66
2023-02-01T18:06:59.742Z,87.38
2023-02-01T18:09:30.264Z,87.34
2023-02-01T18:12:00.921Z,87.43
2023-02-01T18:14:32.345Z,87.29
2023-02-01T18:17:03.081Z,87.22
2023-02-01T18:19:34.992Z,87.46
2023-02-01T18:22:05.864Z,87.71
2023-02-01T18:24:38.709Z,87.92
2023-02-01T18:27:13.424Z,87.72
2023-02-01T18:29:44.567Z,87.51
2023-02-01T18:32:18.543Z,87.25
2023-02-01T18:34:48.977Z,87.11
2023-02-01T18:37:21.203Z,86.91
2023-02-01T18:39:53.309Z,86.83
2023-02-01T18:42:23.791Z,86.50
2023-02-01T18:44:54.262Z,86.48
2023-02-01T18:47:30.680Z,86.47
2023-02-01T18:50:01.112Z,86.59
2023-02-01T18:52:32.097Z,86.67
2023-02-01T18:55:05.564Z,86.21
2023-02-01T18:57:36.104Z,86.43
2023-02-01T19:00:12.163Z,86.59
2023-02-01T19:02:44.562Z,86.54
2023-02-01T19:05:16.996Z,86.77
2023-02-01T19:07:49.279Z,86.05
2023-02-01T19:10:27.813Z,86.08
2023-02-01T19:12:58.927Z,86.01
2023-02-01T19:15:36.642Z,86.01
2023-02-01T19:18:09.606Z,86.16
2023-02-01T19:20:45.091Z,85.86
2023-02-01T19:23:16.111Z,86.04
2023-02-01T19:25:50.708Z,86.13
2023-02-01T19:28:21.611Z,86.23
2023-02-01T19:31:06.539Z,85.78
2023-02-01T19:33:39.593Z,86.29
2023-02-01T19:36:11.860Z,86.28
2023-02-01T19:38:42.483Z,86.03
2023-02-01T19:41:14.136Z,85.51
2023-02-01T19:43:44.933Z,85.71
2023-02-01T19:46:17.095Z,85.20
2023-02-01T19:48:48.944Z,85.23
2023-02-01T19:51:24.154Z,85.08
2023-02-01T19:53:56.215Z,85.13
2023-02-01T19:56:26.981Z,84.79
2023-02-01T19:58:57.524Z,84.78
2023-02-01T20:01:30.480Z,84.79
2023-02-01T20:04:06.375Z,84.25
2023-02-01T20:06:39.417Z,84.31
2023-02-01T20:09:13.006Z,84.05
2023-02-01T20:11:46.102Z,84.43
2023-02-01T20:14:17.203Z,84.69
2023-02-01T20:16:48.375Z,84.42
2023-02-01T20:19:20.735Z,84.52
2023-02-01T20:21:51.164Z,84.39
2023-02-01T20:24:23.171Z,84.47
2023-02-01T20:26:57.713Z,84.56
2023-02-01T20:29:28.338Z,84.35
2023-02-01T20:32:00.798Z,84.37
2023-02-01T20:34:32.773Z,84.48
2023-02-01T20:37:03.602Z,84.21
2023-02-01T20:39:35.753Z,84.49
2023-02-01T20:42:08.456Z,84.47
2023-02-01T20:44:39.185Z,84.36
2023-02-01T20:47:09.649Z,84.27
2023-02-01T20:49:41.762Z,84.48
2023-02-01T20:52:12.219Z,84.34
2023-02-01T20:54:44.657Z,84.40
2023-02-01T20:57:17.176Z,84.17
2023-02-01T20:59:49.644Z,84.07
2023-02-01T21:02:21.878Z,84.31
2023-02-01T21:04:55.290Z,84.08
2023-02-01T21:07:25.716Z,84.21
2023-02-01T21:09:59.381Z,84.42
2023-02-01T21:12:29.961Z,84.20
2023-02-01T21:15:00.904Z,84.20
2023-02-01T21:17:34.336Z,84.34
2023-02-01T21:20:07.562Z,84.51
2023-02-01T21:22:42.690Z,84.74
2023-02-01T21:25:13.642Z,84.79
2023-02-01T21:27:44.327Z,85.14
2023-02-01T21:30:16.597Z,84.85
2023-02-01T21:32:48.786Z,85.21
2023-02-01T21:35:19.340Z,85.16
2023-02-01T21:37:50.954Z,85.04
2023-02-01T21:40:21.680Z,85.05
2023-02-01T21:42:55.539Z,85.18
2023-02-01T21:45:26.387Z,85.02
2023-02-01T21:48:05.228Z,85.09
2023-02-01T21:50:36.800Z,85.02
2023-02-01T21:53:08.954Z,85.18
2023-02-01T21:55:39.928Z,85.04
2023-02-01T21:58:12.831Z,84.67
2023-02-01T22:00:45.474Z,84.72
2023-02-01T22:03:16.075Z,84.52
2023-02-01T22:05:49.542Z,84.25
2023-02-01T22:08:21.359Z,83.88
2023-02-01T22:10:55.004Z,83.49
2023-02-01T22:13:25.432Z,83.41
2023-02-01T22:15:58.652Z,83.02
2023-02-01T22:18:29.969Z,85.89
2023-02-01T22:21:03.795Z,81.05
2023-02-01T22:23:36.332Z,74.08
2023-02-01T22:26:09.607Z,76.18
2023-02-01T22:28:41.493Z,78.36
2023-02-01T22:31:12.376Z,79.56
2023-02-01T22:33:43.036Z,80.62
2023-02-01T22:36:16.572Z,80.43
2023-02-01T22:38:48.668Z,81.05
2023-02-01T22:41:20.342Z,80.99
2023-02-01T22:43:51.596Z,81.13
2023-02-01T22:46:29.285Z,81.21
2023-02-01T22:49:01.829Z,81.47
2023-02-01T22:51:33.583Z,81.52
2023-02-01T22:54:06.549Z,81.61
2023-02-01T22:56:38.350Z,81.83
2023-02-01T22:59:13.248Z,81.97
2023-02-01T23:01:46.343Z,81.69
2023-02-01T23:04:18.317Z,81.78
2023-02-01T23:06:52.894Z,81.91
2023-02-01T23:09:25.877Z,81.79
2023-02-01T23:11:56.445Z,81.92
2023-02-01T23:14:29.840Z,82.04
2023-02-01T23:17:01.847Z,82.34
2023-02-01T23:19:32.698Z,82.56
2023-02-01T23:22:06.982Z,82.44
2023-02-01T23:24:50.427Z,82.55
2023-02-01T23:27:21.476Z,82.89
2023-02-01T23:29:51.950Z,82.94
2023-02-01T23:32:22.585Z,82.83
2023-02-01T23:34:53.671Z,82.80
2023-02-01T23:37:24.286Z,82.98
2023-02-01T23:39:55.882Z,82.82
2023-02-01T23:42:26.655Z,82.97
2023-02-01T23:44:57.263Z,82.65
2023-02-01T23:47:28.731Z,82.52
2023-02-01T23:50:00.607Z,81.95
2023-02-01T23:52:32.669Z,81.70
2023-02-01T23:55:03.507Z,81.57
2023-02-01T23:57:34.080Z,81.44
